Elliot Chaparral Reserve, California Weather observations

Data are for 10 minute period ending at time listed.
 Day   Time   Solar   Ave.   Ave.  Ave.  Vector  Max.   Baro.   Total    
  of    of     Rad.   Air    Rel.  Wind   Wind   Wind  Press.  Precip.   
Year   Day            Temp.  Hum.  Speed  Dir.   Gust                    
2016   (PST)  Kw/m2    F      %     mph   deg.    mph    mb.     in.     
-------------------------------------------------------------------------
 210   21:10   0.00   69.4    68    4.1   299     6.1   982.8    0.00 
 210   21:20   0.00   69.1    70    4.2   298     5.4   982.9    0.00 
 210   21:30   0.00   68.8    73    5.1   299     6.4   982.8    0.00 
 210   21:40   0.00   68.6    75    4.6   309     6.2   982.7    0.00 
 210   21:50   0.00   68.5    76    4.3   313     6.4   982.5    0.00 
 210   22:00   0.00   68.3    79    4.4   308     6.6   982.5    0.00 
 210   22:10   0.00   68.2    81    6.0   318     8.0   982.5    0.00 
 210   22:20   0.00   68.1    82    4.1   332     5.8   982.5    0.00 
 210   22:30   0.00   67.8    82    4.8   333     6.4   982.6    0.00 
 210   22:40   0.00   67.7    83    4.3   336     6.1   982.6    0.00 
 210   22:50   0.00   67.4    83    3.6   330     4.6   982.6    0.00 
 210   23:00   0.00   67.3    84    3.4   327     4.5   982.5    0.00 
 210   23:10   0.00   67.2    84    2.3   333     3.1   982.5    0.00 
 210   23:20   0.00   67.1    84    2.7   329     3.4   982.3    0.00 
 210   23:30   0.00   67.1    85    2.4   340     2.9   982.2    0.00 
 210   23:40   0.00   67.2    85    1.6   348     2.3   982.1    0.00 
 210   23:50   0.00   67.3    84    0.6   333     2.0   982.1    0.00 
 211    0:00   0.00   67.3    84    1.4   309     3.0   982.0    0.00 
 211    0:10   0.00   66.9    85    3.4   282     3.9   981.9    0.00 
 211    0:20   0.00   66.8    86    3.2   293     3.8   981.9    0.00 
 211    0:30   0.00   66.8    86    1.8   301     3.2   981.8    0.00 
 211    0:40   0.00   66.6    86    1.2   306     2.6   981.8    0.00 
 211    0:50   0.00   66.8    86    0.9   317     2.6   981.9    0.00 
 211    1:00   0.00   66.8    86    0.0     0     0.0   981.8    0.00 
 211    1:10   0.00   67.0    86    0.9   318     1.5   981.7    0.00 
 211    1:20   0.00   66.8    86    3.1     6     4.0   981.8    0.00 
 211    1:30   0.00   66.6    86    3.8   355     4.5   981.7    0.00 
 211    1:40   0.00   66.5    86    5.8     6     6.7   981.8    0.00 
 211    1:50   0.00   66.6    86    3.8    24     6.4   981.7    0.00 
 211    2:00   0.00   66.8    84    4.3    28     5.6   981.7    0.00 
 211    2:10   0.00   66.7    84    3.6    10     5.5   981.5    0.00 
 211    2:20   0.00   66.4    84    5.6    11     6.8   981.4    0.00 
 211    2:30   0.00   66.5    84    6.4    16     7.2   981.3    0.00 
 211    2:40   0.00   66.7    83    6.8    20     7.7   981.3    0.00 
 211    2:50   0.00   67.2    81    6.3    32     8.0   981.3    0.00 
 211    3:00   0.00   67.1    80    5.4    11     6.6   981.2    0.00 
 211    3:10   0.00   66.8    81    6.3     6     7.2   981.2    0.00 
 211    3:20   0.00   67.0    80    3.7     1     4.7   981.2    0.00 
 211    3:30   0.00   67.2    79    3.2     2     3.8   981.1    0.00 
 211    3:40   0.00   67.4    78    2.5     4     3.2   981.0    0.00 
 211    3:50   0.00   67.6    77    3.1    20     3.7   981.2    0.00 
 211    4:00   0.00   67.1    78    2.6    46     3.2   981.2    0.00 
 211    4:10   0.00   67.5    77    2.5   360     3.7   981.3    0.00 
 211    4:20   0.00   67.6    77    1.3   280     2.5   981.3    0.00 
 211    4:30   0.00   67.2    79    2.1   253     2.9   981.4    0.00 
 211    4:40   0.00   66.6    82    3.3   290     4.3   981.4    0.00 
 211    4:50   0.00   66.3    83    3.4   310     4.5   981.6    0.00 
 211    5:00   0.00   66.1    84    4.6   315     5.3   981.6    0.00 
 211    5:10   0.00   65.8    85    4.8   335     5.6   981.6    0.00 
 211    5:20   0.01   65.9    85    4.2   340     5.7   981.8    0.00 
 211    5:30   0.03   66.4    84    5.5   347     6.9   981.9    0.00 
 211    5:40   0.04   67.0    83    6.3   340     8.2   981.9    0.00 
 211    5:50   0.06   67.6    86    5.6   337     7.2   981.9    0.00 
 211    6:00   0.09   68.3    86    3.8   352     7.9   982.1    0.00 
 211    6:10   0.13   70.0    84    1.8    17     2.8   982.3    0.00 
 211    6:20   0.15   70.6    83    3.4   339     5.6   982.3    0.00 
 211    6:30   0.18   70.6    82    4.3   344     5.8   982.2    0.00 
 211    6:40   0.21   71.4    80    3.3   341     5.3   982.2    0.00 
 211    6:50   0.25   73.0    77    1.1   308     3.0   982.3    0.00 
 211    7:00   0.28   73.5    76    2.1   346     3.7   982.4    0.00 
 211    7:10   0.32   74.2    74    2.4   305     4.8   982.5    0.00 
 211    7:20   0.35   74.5    73    3.2   270     5.0   982.7    0.00 
 211    7:30   0.38   74.7    72    4.1   255     5.6   982.7    0.00 
 211    7:40   0.41   75.8    69    2.5   248     4.7   982.9    0.00 
 211    7:50   0.45   76.2    67    3.3   262     7.8   982.8    0.00 
 211    8:00   0.47   75.8    68    4.7   258     7.5   982.8    0.00 
 211    8:10   0.51   76.9    65    4.4   246     7.8   982.7    0.00 
 211    8:20   0.54   77.0    63    4.6   256     8.6   982.8    0.00 
 211    8:30   0.57   77.8    61    5.4   258     8.8   982.8    0.00 
 211    8:40   0.60   79.1    58    5.2   238     9.0   982.8    0.00 
 211    8:50   0.62   79.3    59    6.1   262     9.9   982.8    0.00 
 211    9:00   0.65   79.6    58    6.5   265    10.4   982.7    0.00 
 211    9:10   0.68   80.5    57    7.1   247    13.4   982.6    0.00 
 211    9:20   0.70   80.9    56    7.4   258    11.3   982.6    0.00 
 211    9:30   0.73   81.5    54    7.6   262    12.1   982.6    0.00 
 211    9:40   0.75   82.4    52    6.5   258    11.8   982.7    0.00 
 211    9:50   0.77   83.1    52    5.9   264    12.1   982.7    0.00 
 211   10:00   0.79   82.9    52    7.3   260    12.6   982.6    0.00 
 211   10:10   0.81   83.4    52    9.8   249    14.0   982.5    0.00 
 211   10:20   0.83   83.4    53    9.1   265    15.4   982.5    0.00 
 211   10:30   0.84   83.4    53    8.6   266    14.3   982.4    0.00 
 211   10:40   0.85   84.9    49    7.8   243    13.7   982.4    0.00 
 211   10:50   0.86   84.6    50    9.7   270    13.2   982.2    0.00 
 211   11:00   0.87   83.9    51   10.3   287    15.2   982.2    0.00 
 211   11:10   0.88   83.7    52   10.1   276    16.1   982.2    0.00 
 211   11:20   0.89   83.4    52   10.9   274    15.7   982.1    0.00 
 211   11:30   0.89   83.2    53   10.9   279    15.5   982.1    0.00 
 211   11:40   0.90   83.6    52    9.6   272    15.3   982.1    0.00 
 211   11:50   0.89   84.4    50   10.4   259    15.6   981.9    0.00 
 211   12:00   0.88   84.5    48   10.3   247    14.4   981.9    0.00 
 211   12:10   0.90   83.7    49    9.8   244    13.9   981.9    0.00 
 211   12:20   0.89   84.6    48   10.6   251    15.4   981.9    0.00 
 211   12:30   0.89   84.9    48   10.6   252    16.4   981.7    0.00 
 211   12:40   0.88   84.9    47   11.6   247    16.7   981.7    0.00 
 211   12:50   0.87   83.9    48   10.5   256    15.3   981.6    0.00 
 211   13:00   0.87   83.6    48   10.2   260    15.9   981.4    0.00 
 211   13:10   0.86   84.7    47    9.6   257    15.6   981.4    0.00 
 211   13:20   0.84   85.0    47    9.4   255    16.7   981.3    0.00 
 211   13:30   0.83   85.2    47    9.1   250    16.4   981.2    0.00 
 211   13:40   0.81   84.1    49   10.8   267    15.4   981.1    0.00 
 211   13:50   0.79   84.0    50    9.8   275    15.1   981.0    0.00 
 211   14:00   0.77   83.9    49    9.9   266    14.5   981.0    0.00 
 211   14:10   0.75   84.0    48    9.6   253    14.1   980.9    0.00 
 211   14:20   0.73   82.8    50    9.9   255    15.9   980.7    0.00 
 211   14:30   0.70   82.9    50    9.9   251    17.0   980.6    0.00 
 211   14:40   0.68   83.4    49    9.8   248    14.9   980.6    0.00 
 211   14:50   0.65   83.4    49    9.8   256    16.4   980.5    0.00 
 211   15:00   0.63   83.6    48    8.4   241    12.8   980.5    0.00 
 211   15:10   0.60   82.9    50    9.5   251    14.2   980.4    0.00 
 211   15:20   0.57   82.6    51    9.7   256    14.2   980.3    0.00 
 211   15:30   0.54   82.3    51    8.8   253    12.8   980.3    0.00 
 211   15:40   0.51   82.1    52    8.4   261    12.9   980.4    0.00 
 211   15:50   0.48   82.3    52   10.3   288    14.9   980.3    0.00 
 211   16:00   0.45   82.4    51    8.3   268    12.4   980.4    0.00 
 211   16:10   0.42   82.4    52    8.6   263    12.6   980.4    0.00 
 211   16:20   0.39   81.2    53    9.5   240    14.1   980.5    0.00 
 211   16:30   0.35   80.7    53   10.2   250    15.0   980.4    0.00 
 211   16:40   0.32   80.2    54    8.8   254    12.8   980.4    0.00 
 211   16:50   0.28   80.2    54   10.6   245    13.4   980.3    0.00 
 211   17:00   0.25   78.7    57    9.9   251    14.0   980.3    0.00 
 211   17:10   0.22   78.1    59   10.1   245    14.1   980.4    0.00 
 211   17:20   0.19   77.4    60    9.1   245    12.4   980.4    0.00 
 211   17:30   0.16   76.8    61    8.4   256    10.9   980.5    0.00 
 211   17:40   0.13   76.1    62    8.0   234    11.1   980.6    0.00 
 211   17:50   0.10   75.4    64    6.9   238    10.6   980.5    0.00 
 211   18:00   0.08   75.1    64    7.6   236    10.7   980.7    0.00 
 211   18:10   0.07   74.4    65    7.6   233    10.7   980.8    0.00 
 211   18:20   0.04   73.5    67    7.3   225     9.4   980.9    0.00 
 211   18:30   0.02   72.8    68    8.1   215    10.7   981.0    0.00 
 211   18:40   0.01   72.2    70    7.1   223     9.3   981.0    0.00 
 211   18:50   0.00   71.2    72    8.2   238    10.7   981.1    0.00 
 211   19:00   0.00   70.7    73    8.3   218    10.0   981.2    0.00 
 211   19:10   0.00   70.2    74    8.8   209    10.6   981.3    0.00 
 211   19:20   0.00   69.8    75    8.0   206     9.9   981.4    0.00 
 211   19:30   0.00   69.3    76    8.9   199    10.7   981.4    0.00 
 211   19:40   0.00   68.7    77    8.5   192    11.0   981.5    0.00 
 211   19:50   0.00   68.3    79    7.7   195     9.1   981.5    0.00 
 211   20:00   0.00   68.0    80    7.4   192     9.7   981.7    0.00 
 211   20:10   0.00   67.7    80    6.4   186     8.3   981.9    0.00 
 211   20:20   0.00   67.6    81    5.3   191     6.8   981.9    0.00 
 211   20:30   0.00   67.4    81    5.7   194     6.8   982.0    0.00 
 211   20:40   0.00   67.2    82    5.4   198     6.8   982.0    0.00 
 211   20:50   0.00   67.0    82    4.9   196     6.8   982.0    0.00 
 211   21:00   0.00   66.9    82    4.8   199     6.6   982.0    0.00 

Return to Elliot Chaparral Reserve graphs page.


Western Regional Climate Center,wrcc@dri.edu